Aviation Digital Data Service (ADDS)

Output produced by METARs form (0435 UTC 19 April 2015)
found at http://aviationweather.gov/adds/metars/
 
KALB 182321Z 1900/1924 31015G24KT P6SM SKC 
     FM190200 31010KT P6SM SKC 
     FM190700 VRB05KT P6SM SKC 
     FM191800 12007KT P6SM SCT250